Terminal Aerodrome Forecast
Issued by NWS

Home | Current Version | Previous Version | Text Only | Print | Product List | Glossary On
Versions: 1 2 3 4 5 6 7 8 9 10 11 12 13
000
FTUS46 KMFR 301750
TAFRBG
TAF
KRBG 301750Z 3018/3118 VRB02KT P6SM BKN250
     FM302200 18007KT P6SM SCT080 BKN250
     FM310600 18009KT P6SM -RA SCT020 OVC040
     FM311200 VRB03KT P6SM -SHRA BKN020 OVC040=

USA.gov is the U.S. government's official web portal to all federal, state and local government web resources and services.